sensor_id;sensor_type;location;lat;lon;timestamp;P1;durP1;ratioP1;P2;durP2;ratioP2
27566;SDS011;15006;48.584;9.186;2023-05-07T00:00:58;2.53;;;2.42;;
27566;SDS011;15006;48.584;9.186;2023-05-07T00:03:25;2.35;;;2.25;;
27566;SDS011;15006;48.584;9.186;2023-05-07T00:05:51;5.80;;;3.03;;
27566;SDS011;15006;48.584;9.186;2023-05-07T00:08:18;2.65;;;2.35;;
27566;SDS011;15006;48.584;9.186;2023-05-07T00:10:45;3.17;;;2.70;;
27566;SDS011;15006;48.584;9.186;2023-05-07T00:13:11;2.70;;;2.60;;
27566;SDS011;15006;48.584;9.186;2023-05-07T00:15:39;2.95;;;2.75;;
27566;SDS011;15006;48.584;9.186;2023-05-07T00:18:05;3.20;;;2.60;;
27566;SDS011;15006;48.584;9.186;2023-05-07T00:20:32;3.38;;;3.08;;
27566;SDS011;15006;48.584;9.186;2023-05-07T00:22:59;4.55;;;2.85;;
27566;SDS011;15006;48.584;9.186;2023-05-07T00:25:26;3.25;;;3.03;;
27566;SDS011;15006;48.584;9.186;2023-05-07T00:27:53;3.28;;;2.88;;
27566;SDS011;15006;48.584;9.186;2023-05-07T00:30:19;3.08;;;2.88;;
27566;SDS011;15006;48.584;9.186;2023-05-07T00:32:45;3.20;;;2.90;;
27566;SDS011;15006;48.584;9.186;2023-05-07T00:35:11;3.85;;;2.67;;
27566;SDS011;15006;48.584;9.186;2023-05-07T00:37:37;2.65;;;2.55;;
27566;SDS011;15006;48.584;9.186;2023-05-07T00:40:04;2.90;;;2.70;;
27566;SDS011;15006;48.584;9.186;2023-05-07T00:42:33;3.00;;;2.80;;
27566;SDS011;15006;48.584;9.186;2023-05-07T00:44:59;2.70;;;2.50;;
27566;SDS011;15006;48.584;9.186;2023-05-07T00:47:25;2.95;;;2.85;;
27566;SDS011;15006;48.584;9.186;2023-05-07T00:49:51;2.92;;;2.83;;
27566;SDS011;15006;48.584;9.186;2023-05-07T00:52:18;2.97;;;2.78;;
27566;SDS011;15006;48.584;9.186;2023-05-07T00:54:47;2.85;;;2.65;;
27566;SDS011;15006;48.584;9.186;2023-05-07T00:57:13;3.00;;;2.80;;
27566;SDS011;15006;48.584;9.186;2023-05-07T00:59:40;2.70;;;2.60;;
27566;SDS011;15006;48.584;9.186;2023-05-07T01:02:07;3.05;;;2.85;;
27566;SDS011;15006;48.584;9.186;2023-05-07T01:04:33;3.15;;;2.95;;
27566;SDS011;15006;48.584;9.186;2023-05-07T01:06:59;2.90;;;2.80;;
27566;SDS011;15006;48.584;9.186;2023-05-07T01:09:27;2.75;;;2.58;;
27566;SDS011;15006;48.584;9.186;2023-05-07T01:11:54;2.85;;;2.65;;
27566;SDS011;15006;48.584;9.186;2023-05-07T01:14:22;3.15;;;2.83;;
27566;SDS011;15006;48.584;9.186;2023-05-07T01:16:49;2.97;;;2.70;;
27566;SDS011;15006;48.584;9.186;2023-05-07T01:19:19;3.03;;;2.83;;
27566;SDS011;15006;48.584;9.186;2023-05-07T01:21:46;3.15;;;2.80;;
27566;SDS011;15006;48.584;9.186;2023-05-07T01:24:14;3.13;;;2.85;;
27566;SDS011;15006;48.584;9.186;2023-05-07T01:26:42;3.15;;;2.95;;
27566;SDS011;15006;48.584;9.186;2023-05-07T01:29:09;3.67;;;3.38;;
27566;SDS011;15006;48.584;9.186;2023-05-07T01:31:35;3.08;;;2.88;;
27566;SDS011;15006;48.584;9.186;2023-05-07T01:34:02;3.35;;;3.15;;
27566;SDS011;15006;48.584;9.186;2023-05-07T01:36:30;3.20;;;3.00;;
27566;SDS011;15006;48.584;9.186;2023-05-07T01:38:57;3.40;;;3.20;;
27566;SDS011;15006;48.584;9.186;2023-05-07T01:41:24;3.97;;;3.50;;
27566;SDS011;15006;48.584;9.186;2023-05-07T01:43:51;3.35;;;3.10;;
27566;SDS011;15006;48.584;9.186;2023-05-07T01:46:18;2.78;;;2.67;;
27566;SDS011;15006;48.584;9.186;2023-05-07T01:48:45;3.20;;;2.90;;
27566;SDS011;15006;48.584;9.186;2023-05-07T01:51:11;3.40;;;3.20;;
27566;SDS011;15006;48.584;9.186;2023-05-07T01:53:38;3.30;;;3.13;;
27566;SDS011;15006;48.584;9.186;2023-05-07T01:56:06;3.10;;;2.83;;
27566;SDS011;15006;48.584;9.186;2023-05-07T01:58:32;3.10;;;2.88;;
27566;SDS011;15006;48.584;9.186;2023-05-07T02:00:59;3.05;;;2.85;;
27566;SDS011;15006;48.584;9.186;2023-05-07T02:03:25;3.58;;;3.28;;
27566;SDS011;15006;48.584;9.186;2023-05-07T02:05:51;3.40;;;3.22;;
27566;SDS011;15006;48.584;9.186;2023-05-07T02:08:17;3.67;;;3.30;;
27566;SDS011;15006;48.584;9.186;2023-05-07T02:10:43;3.05;;;2.95;;
27566;SDS011;15006;48.584;9.186;2023-05-07T02:13:09;3.40;;;3.20;;
27566;SDS011;15006;48.584;9.186;2023-05-07T02:15:35;3.20;;;3.00;;
27566;SDS011;15006;48.584;9.186;2023-05-07T02:18:05;3.30;;;3.00;;
27566;SDS011;15006;48.584;9.186;2023-05-07T02:20:32;2.92;;;2.83;;
27566;SDS011;15006;48.584;9.186;2023-05-07T02:22:59;3.30;;;3.00;;
27566;SDS011;15006;48.584;9.186;2023-05-07T02:25:25;3.25;;;3.05;;
27566;SDS011;15006;48.584;9.186;2023-05-07T02:27:51;3.33;;;3.13;;
27566;SDS011;15006;48.584;9.186;2023-05-07T02:30:17;3.60;;;3.03;;
27566;SDS011;15006;48.584;9.186;2023-05-07T02:32:43;3.15;;;3.05;;
27566;SDS011;15006;48.584;9.186;2023-05-07T02:35:09;3.33;;;3.13;;
27566;SDS011;15006;48.584;9.186;2023-05-07T02:37:35;4.03;;;3.45;;
27566;SDS011;15006;48.584;9.186;2023-05-07T02:40:01;3.08;;;2.97;;
27566;SDS011;15006;48.584;9.186;2023-05-07T02:42:29;4.30;;;3.42;;
27566;SDS011;15006;48.584;9.186;2023-05-07T02:44:55;3.55;;;3.30;;
27566;SDS011;15006;48.584;9.186;2023-05-07T02:47:21;3.03;;;2.72;;
27566;SDS011;15006;48.584;9.186;2023-05-07T02:49:47;3.42;;;3.17;;
27566;SDS011;15006;48.584;9.186;2023-05-07T02:52:13;4.28;;;3.13;;
27566;SDS011;15006;48.584;9.186;2023-05-07T02:54:39;3.08;;;2.97;;
27566;SDS011;15006;48.584;9.186;2023-05-07T02:57:05;2.83;;;2.72;;
27566;SDS011;15006;48.584;9.186;2023-05-07T02:59:31;3.20;;;2.90;;
27566;SDS011;15006;48.584;9.186;2023-05-07T03:01:57;3.20;;;3.03;;
27566;SDS011;15006;48.584;9.186;2023-05-07T03:04:23;2.90;;;2.70;;
27566;SDS011;15006;48.584;9.186;2023-05-07T03:06:49;2.90;;;2.80;;
27566;SDS011;15006;48.584;9.186;2023-05-07T03:09:15;3.40;;;3.30;;
27566;SDS011;15006;48.584;9.186;2023-05-07T03:11:42;3.08;;;2.85;;
27566;SDS011;15006;48.584;9.186;2023-05-07T03:14:07;3.00;;;2.80;;
27566;SDS011;15006;48.584;9.186;2023-05-07T03:16:33;3.03;;;2.90;;
27566;SDS011;15006;48.584;9.186;2023-05-07T03:19:00;3.60;;;3.35;;
27566;SDS011;15006;48.584;9.186;2023-05-07T03:21:26;3.42;;;2.97;;
27566;SDS011;15006;48.584;9.186;2023-05-07T03:23:52;3.00;;;2.90;;
27566;SDS011;15006;48.584;9.186;2023-05-07T03:26:18;3.30;;;3.10;;
27566;SDS011;15006;48.584;9.186;2023-05-07T03:28:45;3.30;;;3.10;;
27566;SDS011;15006;48.584;9.186;2023-05-07T03:31:11;4.05;;;3.17;;
27566;SDS011;15006;48.584;9.186;2023-05-07T03:33:38;3.10;;;2.90;;
27566;SDS011;15006;48.584;9.186;2023-05-07T03:36:16;3.53;;;3.33;;
27566;SDS011;15006;48.584;9.186;2023-05-07T03:38:42;3.80;;;3.60;;
27566;SDS011;15006;48.584;9.186;2023-05-07T03:41:08;4.47;;;4.15;;
27566;SDS011;15006;48.584;9.186;2023-05-07T03:43:34;4.57;;;4.28;;
27566;SDS011;15006;48.584;9.186;2023-05-07T03:46:00;4.40;;;4.00;;
27566;SDS011;15006;48.584;9.186;2023-05-07T03:48:26;6.80;;;4.07;;
27566;SDS011;15006;48.584;9.186;2023-05-07T03:50:52;5.32;;;5.03;;
27566;SDS011;15006;48.584;9.186;2023-05-07T03:53:18;4.30;;;4.07;;
27566;SDS011;15006;48.584;9.186;2023-05-07T03:55:44;6.28;;;4.15;;
27566;SDS011;15006;48.584;9.186;2023-05-07T03:58:10;5.32;;;4.85;;
27566;SDS011;15006;48.584;9.186;2023-05-07T04:00:36;5.28;;;4.82;;
27566;SDS011;15006;48.584;9.186;2023-05-07T04:03:04;5.65;;;5.20;;
27566;SDS011;15006;48.584;9.186;2023-05-07T04:05:31;7.28;;;4.93;;
27566;SDS011;15006;48.584;9.186;2023-05-07T04:07:57;5.22;;;4.85;;
27566;SDS011;15006;48.584;9.186;2023-05-07T04:10:24;5.25;;;4.55;;
27566;SDS011;15006;48.584;9.186;2023-05-07T04:12:50;4.97;;;4.57;;
27566;SDS011;15006;48.584;9.186;2023-05-07T04:15:16;5.63;;;5.13;;
27566;SDS011;15006;48.584;9.186;2023-05-07T04:17:42;6.90;;;5.47;;
27566;SDS011;15006;48.584;9.186;2023-05-07T04:20:09;6.18;;;5.68;;
27566;SDS011;15006;48.584;9.186;2023-05-07T04:22:37;6.00;;;5.50;;
27566;SDS011;15006;48.584;9.186;2023-05-07T04:25:03;6.65;;;5.60;;
27566;SDS011;15006;48.584;9.186;2023-05-07T04:27:29;6.15;;;5.68;;
27566;SDS011;15006;48.584;9.186;2023-05-07T04:29:55;7.85;;;6.18;;
27566;SDS011;15006;48.584;9.186;2023-05-07T04:32:22;6.10;;;5.55;;
27566;SDS011;15006;48.584;9.186;2023-05-07T04:34:50;4.65;;;4.25;;
27566;SDS011;15006;48.584;9.186;2023-05-07T04:37:16;4.18;;;3.88;;
27566;SDS011;15006;48.584;9.186;2023-05-07T04:39:42;4.25;;;3.95;;
27566;SDS011;15006;48.584;9.186;2023-05-07T04:42:08;6.93;;;5.43;;
27566;SDS011;15006;48.584;9.186;2023-05-07T04:44:35;14.07;;;9.05;;
27566;SDS011;15006;48.584;9.186;2023-05-07T04:47:02;40.15;;;20.02;;
27566;SDS011;15006;48.584;9.186;2023-05-07T04:49:28;37.67;;;20.98;;
27566;SDS011;15006;48.584;9.186;2023-05-07T04:51:54;42.45;;;21.25;;
27566;SDS011;15006;48.584;9.186;2023-05-07T04:54:20;45.80;;;24.67;;
27566;SDS011;15006;48.584;9.186;2023-05-07T04:56:46;45.30;;;26.27;;
27566;SDS011;15006;48.584;9.186;2023-05-07T04:59:12;47.95;;;25.58;;
27566;SDS011;15006;48.584;9.186;2023-05-07T05:01:38;56.33;;;28.52;;
27566;SDS011;15006;48.584;9.186;2023-05-07T05:04:05;54.47;;;28.10;;
27566;SDS011;15006;48.584;9.186;2023-05-07T05:06:31;46.05;;;25.02;;
27566;SDS011;15006;48.584;9.186;2023-05-07T05:08:57;46.13;;;24.90;;
27566;SDS011;15006;48.584;9.186;2023-05-07T05:11:23;48.50;;;24.80;;
27566;SDS011;15006;48.584;9.186;2023-05-07T05:13:49;45.22;;;26.10;;
27566;SDS011;15006;48.584;9.186;2023-05-07T05:16:15;44.72;;;25.83;;
27566;SDS011;15006;48.584;9.186;2023-05-07T05:18:41;39.78;;;23.42;;
27566;SDS011;15006;48.584;9.186;2023-05-07T05:21:07;38.08;;;22.80;;
27566;SDS011;15006;48.584;9.186;2023-05-07T05:23:33;36.38;;;21.25;;
27566;SDS011;15006;48.584;9.186;2023-05-07T05:25:59;32.35;;;19.40;;
27566;SDS011;15006;48.584;9.186;2023-05-07T05:28:25;32.85;;;19.40;;
27566;SDS011;15006;48.584;9.186;2023-05-07T05:30:53;27.27;;;17.92;;
27566;SDS011;15006;48.584;9.186;2023-05-07T05:33:19;28.55;;;17.42;;
27566;SDS011;15006;48.584;9.186;2023-05-07T05:35:45;21.20;;;13.52;;
27566;SDS011;15006;48.584;9.186;2023-05-07T05:38:11;12.32;;;7.68;;
27566;SDS011;15006;48.584;9.186;2023-05-07T05:40:38;7.93;;;7.22;;
27566;SDS011;15006;48.584;9.186;2023-05-07T05:43:05;8.25;;;6.40;;
27566;SDS011;15006;48.584;9.186;2023-05-07T05:45:31;6.57;;;5.93;;
27566;SDS011;15006;48.584;9.186;2023-05-07T05:47:57;6.47;;;5.95;;
27566;SDS011;15006;48.584;9.186;2023-05-07T05:50:23;6.38;;;5.47;;
27566;SDS011;15006;48.584;9.186;2023-05-07T05:52:50;5.43;;;5.00;;
27566;SDS011;15006;48.584;9.186;2023-05-07T05:55:16;4.50;;;4.20;;
27566;SDS011;15006;48.584;9.186;2023-05-07T05:57:42;4.20;;;3.85;;
27566;SDS011;15006;48.584;9.186;2023-05-07T06:00:08;4.43;;;4.13;;
27566;SDS011;15006;48.584;9.186;2023-05-07T06:02:35;3.70;;;3.50;;
27566;SDS011;15006;48.584;9.186;2023-05-07T06:05:01;3.70;;;3.50;;
27566;SDS011;15006;48.584;9.186;2023-05-07T06:07:27;3.30;;;3.10;;
27566;SDS011;15006;48.584;9.186;2023-05-07T06:09:53;4.72;;;3.42;;
27566;SDS011;15006;48.584;9.186;2023-05-07T06:12:19;3.47;;;3.28;;
27566;SDS011;15006;48.584;9.186;2023-05-07T06:14:51;5.18;;;2.95;;
27566;SDS011;15006;48.584;9.186;2023-05-07T06:17:17;3.05;;;2.95;;
27566;SDS011;15006;48.584;9.186;2023-05-07T06:19:43;3.60;;;3.40;;
27566;SDS011;15006;48.584;9.186;2023-05-07T06:22:09;4.03;;;3.60;;
27566;SDS011;15006;48.584;9.186;2023-05-07T06:24:35;4.18;;;3.88;;
27566;SDS011;15006;48.584;9.186;2023-05-07T06:27:01;3.90;;;3.60;;
27566;SDS011;15006;48.584;9.186;2023-05-07T06:29:27;5.47;;;3.53;;
27566;SDS011;15006;48.584;9.186;2023-05-07T06:31:55;5.32;;;3.33;;
27566;SDS011;15006;48.584;9.186;2023-05-07T06:34:21;3.72;;;3.42;;
27566;SDS011;15006;48.584;9.186;2023-05-07T06:36:47;3.72;;;3.00;;
27566;SDS011;15006;48.584;9.186;2023-05-07T06:39:13;3.20;;;3.00;;
27566;SDS011;15006;48.584;9.186;2023-05-07T06:41:39;3.45;;;3.17;;
27566;SDS011;15006;48.584;9.186;2023-05-07T06:44:05;3.83;;;3.53;;
27566;SDS011;15006;48.584;9.186;2023-05-07T06:46:31;3.08;;;2.90;;
27566;SDS011;15006;48.584;9.186;2023-05-07T06:48:57;3.35;;;3.03;;
27566;SDS011;15006;48.584;9.186;2023-05-07T06:51:23;3.20;;;2.88;;
27566;SDS011;15006;48.584;9.186;2023-05-07T06:53:49;3.90;;;2.72;;
27566;SDS011;15006;48.584;9.186;2023-05-07T06:56:15;3.17;;;2.88;;
27566;SDS011;15006;48.584;9.186;2023-05-07T06:58:41;3.50;;;2.60;;
27566;SDS011;15006;48.584;9.186;2023-05-07T07:01:19;3.00;;;2.80;;
27566;SDS011;15006;48.584;9.186;2023-05-07T07:03:45;2.83;;;2.63;;
27566;SDS011;15006;48.584;9.186;2023-05-07T07:06:12;3.05;;;2.75;;
27566;SDS011;15006;48.584;9.186;2023-05-07T07:08:38;3.35;;;3.15;;
27566;SDS011;15006;48.584;9.186;2023-05-07T07:11:04;3.30;;;3.10;;
27566;SDS011;15006;48.584;9.186;2023-05-07T07:13:31;2.90;;;2.70;;
27566;SDS011;15006;48.584;9.186;2023-05-07T07:15:57;3.25;;;3.05;;
27566;SDS011;15006;48.584;9.186;2023-05-07T07:18:23;3.58;;;3.00;;
27566;SDS011;15006;48.584;9.186;2023-05-07T07:20:49;3.30;;;3.00;;
27566;SDS011;15006;48.584;9.186;2023-05-07T07:23:15;2.80;;;2.55;;
27566;SDS011;15006;48.584;9.186;2023-05-07T07:25:41;3.35;;;2.83;;
27566;SDS011;15006;48.584;9.186;2023-05-07T07:28:07;4.80;;;3.03;;
27566;SDS011;15006;48.584;9.186;2023-05-07T07:30:32;3.70;;;2.80;;
27566;SDS011;15006;48.584;9.186;2023-05-07T07:32:58;2.50;;;2.17;;
27566;SDS011;15006;48.584;9.186;2023-05-07T07:35:30;2.10;;;2.00;;
27566;SDS011;15006;48.584;9.186;2023-05-07T07:37:57;2.05;;;1.95;;
27566;SDS011;15006;48.584;9.186;2023-05-07T07:40:24;2.05;;;1.95;;
27566;SDS011;15006;48.584;9.186;2023-05-07T07:42:52;2.40;;;2.20;;
27566;SDS011;15006;48.584;9.186;2023-05-07T07:45:19;2.53;;;2.33;;
27566;SDS011;15006;48.584;9.186;2023-05-07T07:47:45;3.38;;;2.25;;
27566;SDS011;15006;48.584;9.186;2023-05-07T07:50:11;3.38;;;2.20;;
27566;SDS011;15006;48.584;9.186;2023-05-07T07:52:37;1.88;;;1.77;;
27566;SDS011;15006;48.584;9.186;2023-05-07T07:55:03;2.33;;;2.22;;
27566;SDS011;15006;48.584;9.186;2023-05-07T07:57:30;2.50;;;2.40;;
27566;SDS011;15006;48.584;9.186;2023-05-07T07:59:56;2.85;;;1.92;;
27566;SDS011;15006;48.584;9.186;2023-05-07T08:02:22;2.40;;;2.20;;
27566;SDS011;15006;48.584;9.186;2023-05-07T08:04:48;3.67;;;2.58;;
27566;SDS011;15006;48.584;9.186;2023-05-07T08:07:14;2.10;;;2.00;;
27566;SDS011;15006;48.584;9.186;2023-05-07T08:09:40;2.30;;;2.20;;
27566;SDS011;15006;48.584;9.186;2023-05-07T08:12:06;1.95;;;1.83;;
27566;SDS011;15006;48.584;9.186;2023-05-07T08:14:33;2.30;;;2.10;;
27566;SDS011;15006;48.584;9.186;2023-05-07T08:16:59;3.17;;;2.08;;
27566;SDS011;15006;48.584;9.186;2023-05-07T08:19:26;1.98;;;1.88;;
27566;SDS011;15006;48.584;9.186;2023-05-07T08:21:52;2.13;;;2.03;;
27566;SDS011;15006;48.584;9.186;2023-05-07T08:24:18;2.10;;;2.00;;
27566;SDS011;15006;48.584;9.186;2023-05-07T08:26:45;2.67;;;1.83;;
27566;SDS011;15006;48.584;9.186;2023-05-07T08:29:11;2.03;;;1.92;;
27566;SDS011;15006;48.584;9.186;2023-05-07T08:31:38;1.70;;;1.60;;
27566;SDS011;15006;48.584;9.186;2023-05-07T08:34:04;2.03;;;1.92;;
27566;SDS011;15006;48.584;9.186;2023-05-07T08:36:31;2.83;;;1.75;;
27566;SDS011;15006;48.584;9.186;2023-05-07T08:38:58;1.67;;;1.58;;
27566;SDS011;15006;48.584;9.186;2023-05-07T08:41:25;2.28;;;1.50;;
27566;SDS011;15006;48.584;9.186;2023-05-07T08:43:51;1.70;;;1.60;;
27566;SDS011;15006;48.584;9.186;2023-05-07T08:46:19;1.63;;;1.52;;
27566;SDS011;15006;48.584;9.186;2023-05-07T08:48:49;2.38;;;1.52;;
27566;SDS011;15006;48.584;9.186;2023-05-07T08:51:17;3.03;;;1.65;;
27566;SDS011;15006;48.584;9.186;2023-05-07T08:53:46;1.92;;;1.80;;
27566;SDS011;15006;48.584;9.186;2023-05-07T08:56:13;1.40;;;1.30;;
27566;SDS011;15006;48.584;9.186;2023-05-07T08:58:45;1.55;;;1.45;;
27566;SDS011;15006;48.584;9.186;2023-05-07T09:01:15;3.83;;;1.40;;
27566;SDS011;15006;48.584;9.186;2023-05-07T09:03:44;1.33;;;1.23;;
27566;SDS011;15006;48.584;9.186;2023-05-07T09:06:12;1.70;;;1.60;;
27566;SDS011;15006;48.584;9.186;2023-05-07T09:08:38;1.50;;;1.40;;
27566;SDS011;15006;48.584;9.186;2023-05-07T09:11:04;1.95;;;1.38;;
27566;SDS011;15006;48.584;9.186;2023-05-07T09:13:30;1.70;;;1.60;;
27566;SDS011;15006;48.584;9.186;2023-05-07T09:15:56;1.17;;;1.10;;
27566;SDS011;15006;48.584;9.186;2023-05-07T09:18:25;2.15;;;1.23;;
27566;SDS011;15006;48.584;9.186;2023-05-07T09:20:51;1.20;;;1.10;;
27566;SDS011;15006;48.584;9.186;2023-05-07T09:23:17;1.52;;;1.42;;
27566;SDS011;15006;48.584;9.186;2023-05-07T09:25:43;1.50;;;1.40;;
27566;SDS011;15006;48.584;9.186;2023-05-07T09:28:09;1.73;;;0.93;;
27566;SDS011;15006;48.584;9.186;2023-05-07T09:30:36;1.52;;;1.10;;
27566;SDS011;15006;48.584;9.186;2023-05-07T09:33:03;1.60;;;1.20;;
27566;SDS011;15006;48.584;9.186;2023-05-07T09:35:30;1.00;;;1.00;;
27566;SDS011;15006;48.584;9.186;2023-05-07T09:37:57;1.63;;;0.82;;
27566;SDS011;15006;48.584;9.186;2023-05-07T09:40:27;1.17;;;1.02;;
27566;SDS011;15006;48.584;9.186;2023-05-07T09:42:54;1.13;;;1.02;;
27566;SDS011;15006;48.584;9.186;2023-05-07T09:45:21;1.88;;;1.02;;
27566;SDS011;15006;48.584;9.186;2023-05-07T09:47:48;0.90;;;0.80;;
27566;SDS011;15006;48.584;9.186;2023-05-07T09:50:21;0.80;;;0.80;;
27566;SDS011;15006;48.584;9.186;2023-05-07T09:52:54;3.42;;;0.80;;
27566;SDS011;15006;48.584;9.186;2023-05-07T09:55:21;3.20;;;0.77;;
27566;SDS011;15006;48.584;9.186;2023-05-07T09:57:50;1.25;;;0.75;;
27566;SDS011;15006;48.584;9.186;2023-05-07T10:00:21;2.28;;;0.70;;
27566;SDS011;15006;48.584;9.186;2023-05-07T10:02:49;0.70;;;0.70;;
27566;SDS011;15006;48.584;9.186;2023-05-07T10:05:21;0.70;;;0.70;;
27566;SDS011;15006;48.584;9.186;2023-05-07T10:07:48;1.80;;;0.70;;
27566;SDS011;15006;48.584;9.186;2023-05-07T10:10:15;0.93;;;0.80;;
27566;SDS011;15006;48.584;9.186;2023-05-07T10:12:43;0.60;;;0.60;;
27566;SDS011;15006;48.584;9.186;2023-05-07T10:15:09;1.00;;;0.50;;
27566;SDS011;15006;48.584;9.186;2023-05-07T10:17:39;0.90;;;0.90;;
27566;SDS011;15006;48.584;9.186;2023-05-07T10:20:06;0.70;;;0.70;;
27566;SDS011;15006;48.584;9.186;2023-05-07T10:22:38;0.70;;;0.68;;
27566;SDS011;15006;48.584;9.186;2023-05-07T10:25:16;1.10;;;0.90;;
27566;SDS011;15006;48.584;9.186;2023-05-07T10:27:51;0.80;;;0.80;;
27566;SDS011;15006;48.584;9.186;2023-05-07T10:32:55;0.60;;;0.60;;
27566;SDS011;15006;48.584;9.186;2023-05-07T10:35:31;0.70;;;0.70;;
27566;SDS011;15006;48.584;9.186;2023-05-07T10:38:04;1.05;;;0.75;;
27566;SDS011;15006;48.584;9.186;2023-05-07T10:40:31;1.58;;;0.57;;
27566;SDS011;15006;48.584;9.186;2023-05-07T10:42:57;2.83;;;0.80;;
27566;SDS011;15006;48.584;9.186;2023-05-07T10:45:32;0.70;;;0.70;;
27566;SDS011;15006;48.584;9.186;2023-05-07T10:48:08;1.50;;;0.80;;
27566;SDS011;15006;48.584;9.186;2023-05-07T10:50:45;0.82;;;0.60;;
27566;SDS011;15006;48.584;9.186;2023-05-07T10:55:49;1.40;;;0.80;;
27566;SDS011;15006;48.584;9.186;2023-05-07T11:00:46;0.88;;;0.88;;
27566;SDS011;15006;48.584;9.186;2023-05-07T11:03:14;0.90;;;0.68;;
27566;SDS011;15006;48.584;9.186;2023-05-07T11:05:40;0.70;;;0.70;;
27566;SDS011;15006;48.584;9.186;2023-05-07T11:08:08;0.70;;;0.70;;
27566;SDS011;15006;48.584;9.186;2023-05-07T11:16:18;1.63;;;0.77;;
27566;SDS011;15006;48.584;9.186;2023-05-07T11:18:47;0.70;;;0.63;;
27566;SDS011;15006;48.584;9.186;2023-05-07T11:21:33;2.20;;;0.75;;
27566;SDS011;15006;48.584;9.186;2023-05-07T11:24:09;0.80;;;0.80;;
27566;SDS011;15006;48.584;9.186;2023-05-07T11:26:46;0.85;;;0.60;;
27566;SDS011;15006;48.584;9.186;2023-05-07T11:29:15;1.80;;;0.77;;
27566;SDS011;15006;48.584;9.186;2023-05-07T11:31:52;0.68;;;0.68;;
27566;SDS011;15006;48.584;9.186;2023-05-07T11:34:21;1.02;;;0.55;;
27566;SDS011;15006;48.584;9.186;2023-05-07T11:36:50;0.82;;;0.80;;
27566;SDS011;15006;48.584;9.186;2023-05-07T11:39:27;1.27;;;0.70;;
27566;SDS011;15006;48.584;9.186;2023-05-07T11:41:58;1.17;;;0.70;;
27566;SDS011;15006;48.584;9.186;2023-05-07T11:44:39;1.10;;;0.80;;
27566;SDS011;15006;48.584;9.186;2023-05-07T11:47:17;0.73;;;0.65;;
27566;SDS011;15006;48.584;9.186;2023-05-07T11:52:14;2.83;;;0.75;;
27566;SDS011;15006;48.584;9.186;2023-05-07T11:54:54;0.80;;;0.63;;
27566;SDS011;15006;48.584;9.186;2023-05-07T11:57:23;3.05;;;0.88;;
27566;SDS011;15006;48.584;9.186;2023-05-07T11:59:56;0.80;;;0.80;;
27566;SDS011;15006;48.584;9.186;2023-05-07T12:02:23;2.47;;;0.70;;
27566;SDS011;15006;48.584;9.186;2023-05-07T12:04:51;1.20;;;0.80;;
27566;SDS011;15006;48.584;9.186;2023-05-07T12:07:18;0.93;;;0.88;;
27566;SDS011;15006;48.584;9.186;2023-05-07T12:09:44;1.25;;;0.70;;
27566;SDS011;15006;48.584;9.186;2023-05-07T12:12:12;2.20;;;0.90;;
27566;SDS011;15006;48.584;9.186;2023-05-07T12:14:41;1.63;;;0.80;;
27566;SDS011;15006;48.584;9.186;2023-05-07T12:17:09;1.00;;;0.82;;
27566;SDS011;15006;48.584;9.186;2023-05-07T12:19:37;0.75;;;0.75;;
27566;SDS011;15006;48.584;9.186;2023-05-07T12:22:05;0.80;;;0.80;;
27566;SDS011;15006;48.584;9.186;2023-05-07T12:24:43;4.22;;;0.90;;
27566;SDS011;15006;48.584;9.186;2023-05-07T12:27:15;1.05;;;0.80;;
27566;SDS011;15006;48.584;9.186;2023-05-07T12:29:46;0.73;;;0.73;;
27566;SDS011;15006;48.584;9.186;2023-05-07T12:32:13;4.63;;;0.90;;
27566;SDS011;15006;48.584;9.186;2023-05-07T12:34:43;1.27;;;0.60;;
27566;SDS011;15006;48.584;9.186;2023-05-07T12:37:10;0.80;;;0.70;;
27566;SDS011;15006;48.584;9.186;2023-05-07T12:39:37;1.02;;;0.85;;
27566;SDS011;15006;48.584;9.186;2023-05-07T12:42:09;0.65;;;0.63;;
27566;SDS011;15006;48.584;9.186;2023-05-07T12:44:41;0.82;;;0.82;;
27566;SDS011;15006;48.584;9.186;2023-05-07T12:47:11;1.08;;;1.05;;
27566;SDS011;15006;48.584;9.186;2023-05-07T12:49:38;0.90;;;0.90;;
27566;SDS011;15006;48.584;9.186;2023-05-07T12:52:05;1.42;;;1.13;;
27566;SDS011;15006;48.584;9.186;2023-05-07T12:54:32;1.33;;;1.05;;
27566;SDS011;15006;48.584;9.186;2023-05-07T12:57:04;1.98;;;0.85;;
27566;SDS011;15006;48.584;9.186;2023-05-07T12:59:33;1.23;;;1.00;;
27566;SDS011;15006;48.584;9.186;2023-05-07T13:02:04;1.23;;;1.13;;
27566;SDS011;15006;48.584;9.186;2023-05-07T13:04:31;2.65;;;1.20;;
27566;SDS011;15006;48.584;9.186;2023-05-07T13:06:57;2.15;;;1.02;;
27566;SDS011;15006;48.584;9.186;2023-05-07T13:09:24;1.10;;;1.00;;
27566;SDS011;15006;48.584;9.186;2023-05-07T13:11:50;2.42;;;1.33;;
27566;SDS011;15006;48.584;9.186;2023-05-07T13:14:16;7.32;;;1.35;;
27566;SDS011;15006;48.584;9.186;2023-05-07T13:16:42;2.15;;;1.13;;
27566;SDS011;15006;48.584;9.186;2023-05-07T13:19:08;2.10;;;1.23;;
27566;SDS011;15006;48.584;9.186;2023-05-07T13:21:35;1.98;;;1.17;;
27566;SDS011;15006;48.584;9.186;2023-05-07T13:24:01;1.00;;;1.00;;
27566;SDS011;15006;48.584;9.186;2023-05-07T13:26:29;4.75;;;1.15;;
27566;SDS011;15006;48.584;9.186;2023-05-07T13:28:56;1.30;;;1.20;;
27566;SDS011;15006;48.584;9.186;2023-05-07T13:31:22;1.40;;;1.30;;
27566;SDS011;15006;48.584;9.186;2023-05-07T13:33:49;1.80;;;1.60;;
27566;SDS011;15006;48.584;9.186;2023-05-07T13:36:15;1.55;;;1.45;;
27566;SDS011;15006;48.584;9.186;2023-05-07T13:38:41;1.75;;;1.65;;
27566;SDS011;15006;48.584;9.186;2023-05-07T13:41:07;5.85;;;2.10;;
27566;SDS011;15006;48.584;9.186;2023-05-07T13:43:34;5.55;;;2.55;;
27566;SDS011;15006;48.584;9.186;2023-05-07T13:46:03;2.17;;;1.98;;
27566;SDS011;15006;48.584;9.186;2023-05-07T13:48:31;3.97;;;2.20;;
27566;SDS011;15006;48.584;9.186;2023-05-07T13:51:03;3.97;;;2.00;;
27566;SDS011;15006;48.584;9.186;2023-05-07T13:53:37;2.13;;;1.98;;
27566;SDS011;15006;48.584;9.186;2023-05-07T13:56:04;3.08;;;1.85;;
27566;SDS011;15006;48.584;9.186;2023-05-07T13:58:31;1.77;;;1.67;;
27566;SDS011;15006;48.584;9.186;2023-05-07T14:00:57;3.03;;;2.05;;
27566;SDS011;15006;48.584;9.186;2023-05-07T14:03:25;4.07;;;2.60;;
27566;SDS011;15006;48.584;9.186;2023-05-07T14:05:53;6.05;;;2.78;;
27566;SDS011;15006;48.584;9.186;2023-05-07T14:08:20;3.20;;;2.90;;
27566;SDS011;15006;48.584;9.186;2023-05-07T14:10:49;2.75;;;2.25;;
27566;SDS011;15006;48.584;9.186;2023-05-07T14:13:17;2.55;;;2.35;;
27566;SDS011;15006;48.584;9.186;2023-05-07T14:15:43;2.80;;;2.60;;
27566;SDS011;15006;48.584;9.186;2023-05-07T14:18:15;6.05;;;2.55;;
27566;SDS011;15006;48.584;9.186;2023-05-07T14:20:41;4.75;;;2.60;;
27566;SDS011;15006;48.584;9.186;2023-05-07T14:23:12;5.03;;;2.40;;
27566;SDS011;15006;48.584;9.186;2023-05-07T14:25:39;2.63;;;2.42;;
27566;SDS011;15006;48.584;9.186;2023-05-07T14:28:06;6.68;;;2.85;;
27566;SDS011;15006;48.584;9.186;2023-05-07T14:30:33;3.15;;;2.53;;
27566;SDS011;15006;48.584;9.186;2023-05-07T14:33:03;2.57;;;2.00;;
27566;SDS011;15006;48.584;9.186;2023-05-07T14:35:29;3.00;;;2.80;;
27566;SDS011;15006;48.584;9.186;2023-05-07T14:37:55;3.63;;;3.20;;
27566;SDS011;15006;48.584;9.186;2023-05-07T14:40:23;3.85;;;3.53;;
27566;SDS011;15006;48.584;9.186;2023-05-07T14:42:49;3.55;;;3.10;;
27566;SDS011;15006;48.584;9.186;2023-05-07T14:45:15;3.03;;;2.72;;
27566;SDS011;15006;48.584;9.186;2023-05-07T14:47:41;2.63;;;2.40;;
27566;SDS011;15006;48.584;9.186;2023-05-07T14:50:08;2.60;;;2.40;;
27566;SDS011;15006;48.584;9.186;2023-05-07T14:52:34;3.28;;;2.70;;
27566;SDS011;15006;48.584;9.186;2023-05-07T14:55:00;2.47;;;2.30;;
27566;SDS011;15006;48.584;9.186;2023-05-07T14:57:27;3.22;;;2.67;;
27566;SDS011;15006;48.584;9.186;2023-05-07T14:59:53;2.63;;;2.40;;
27566;SDS011;15006;48.584;9.186;2023-05-07T15:02:19;3.13;;;2.03;;